createdAt,value
2023-01-29T00:04:14.062Z,4.53
2023-01-29T00:09:16.325Z,4.43
2023-01-29T00:14:18.576Z,4.33
2023-01-29T00:19:22.041Z,4.07
2023-01-29T00:24:24.680Z,4.20
2023-01-29T00:29:26.761Z,4.40
2023-01-29T00:34:29.963Z,4.60
2023-01-29T00:39:46.820Z,4.60
2023-01-29T00:44:50.528Z,4.00
2023-01-29T00:49:54.449Z,4.63
2023-01-29T00:54:58.466Z,4.20
2023-01-29T01:00:01.373Z,4.43
2023-01-29T01:05:05.589Z,4.83
2023-01-29T01:16:14.988Z,5.07
2023-01-29T01:21:18.593Z,5.00
2023-01-29T01:26:20.974Z,4.37
2023-01-29T01:31:23.261Z,4.40
2023-01-29T01:36:26.699Z,4.87
2023-01-29T01:41:30.146Z,5.17
2023-01-29T01:46:33.836Z,4.40
2023-01-29T01:51:43.392Z,4.97
2023-01-29T01:56:51.032Z,5.00
2023-01-29T02:01:54.637Z,6.00
2023-01-29T02:07:01.460Z,5.07
2023-01-29T02:12:05.827Z,5.10
2023-01-29T02:17:11.564Z,5.60
2023-01-29T02:22:45.479Z,5.90
2023-01-29T02:28:13.605Z,5.60
2023-01-29T02:33:26.251Z,5.60
2023-01-29T02:38:35.017Z,5.20
2023-01-29T02:43:46.415Z,6.10
2023-01-29T02:48:58.272Z,5.23
2023-01-29T02:54:05.278Z,4.83
2023-01-29T03:05:01.626Z,5.47
2023-01-29T03:10:09.870Z,6.07
2023-01-29T03:15:18.344Z,5.37
2023-01-29T03:20:25.002Z,6.37
2023-01-29T03:25:28.569Z,5.40
2023-01-29T03:30:35.588Z,6.07
2023-01-29T03:35:44.854Z,6.00
2023-01-29T03:40:51.288Z,5.40
2023-01-29T03:46:03.770Z,6.47
2023-01-29T03:51:16.877Z,6.30
2023-01-29T03:56:29.366Z,5.87
2023-01-29T04:01:40.993Z,5.83
2023-01-29T04:06:46.779Z,5.57
2023-01-29T04:11:55.433Z,6.80
2023-01-29T04:17:03.241Z,6.17
2023-01-29T04:22:10.598Z,7.50
2023-01-29T04:27:26.202Z,6.83
2023-01-29T04:32:37.998Z,6.77
2023-01-29T04:37:45.321Z,6.63
2023-01-29T04:42:55.242Z,6.13
2023-01-29T04:48:07.581Z,6.87
2023-01-29T04:53:15.674Z,7.17
2023-01-29T04:58:26.796Z,6.83
2023-01-29T05:03:33.637Z,6.87
2023-01-29T05:08:39.049Z,7.20
2023-01-29T05:13:42.737Z,7.17
2023-01-29T05:18:46.743Z,6.23
2023-01-29T05:24:07.142Z,7.13
2023-01-29T05:29:08.892Z,6.27
2023-01-29T05:34:12.432Z,7.77
2023-01-29T05:39:14.175Z,8.00
2023-01-29T05:44:16.706Z,6.83
2023-01-29T05:49:20.342Z,6.73
2023-01-29T05:54:22.476Z,6.87
2023-01-29T05:59:24.876Z,7.43
2023-01-29T06:04:28.344Z,6.67
2023-01-29T06:09:30.407Z,7.13
2023-01-29T06:14:32.917Z,8.50
2023-01-29T06:19:36.477Z,8.60
2023-01-29T06:24:38.550Z,8.50
2023-01-29T06:29:40.734Z,9.20
2023-01-29T06:34:44.190Z,8.50
2023-01-29T06:39:46.283Z,9.30
2023-01-29T06:44:48.602Z,8.90
2023-01-29T06:49:51.716Z,9.17
2023-01-29T06:54:53.443Z,8.37
2023-01-29T06:59:55.780Z,9.53
2023-01-29T07:04:59.300Z,8.93
2023-01-29T07:10:01.468Z,8.23
2023-01-29T07:15:03.520Z,9.10
2023-01-29T07:20:08.558Z,9.60
2023-01-29T07:25:10.646Z,10.40
2023-01-29T07:30:13.888Z,8.20
2023-01-29T07:35:17.403Z,10.60
2023-01-29T07:40:19.342Z,10.03
2023-01-29T07:45:21.754Z,9.53
2023-01-29T07:50:26.320Z,9.07
2023-01-29T08:00:55.553Z,10.70
2023-01-29T08:05:59.344Z,8.87
2023-01-29T08:11:01.942Z,9.87
2023-01-29T08:16:04.857Z,9.07
2023-01-29T08:21:08.329Z,9.47
2023-01-29T08:26:10.413Z,9.40
2023-01-29T08:31:15.981Z,10.47
2023-01-29T08:36:19.173Z,10.10
2023-01-29T08:41:21.323Z,9.30
2023-01-29T08:46:23.873Z,9.00
2023-01-29T08:51:51.202Z,9.77
2023-01-29T08:56:53.048Z,9.43
2023-01-29T09:01:55.150Z,10.53
2023-01-29T09:06:58.351Z,10.27
2023-01-29T09:12:00.465Z,10.00
2023-01-29T09:17:02.221Z,10.00
2023-01-29T09:22:05.502Z,9.33
2023-01-29T09:27:07.559Z,10.07
2023-01-29T09:32:09.704Z,9.40
2023-01-29T09:37:13.710Z,9.03
2023-01-29T09:42:22.836Z,9.00
2023-01-29T09:47:27.030Z,9.70
2023-01-29T09:52:33.762Z,8.17
2023-01-29T09:57:50.381Z,9.00
2023-01-29T10:03:10.933Z,7.57
2023-01-29T10:08:34.279Z,7.53
2023-01-29T10:13:45.063Z,7.63
2023-01-29T10:19:03.898Z,7.17
2023-01-29T10:24:22.127Z,6.70
2023-01-29T10:29:25.771Z,6.67
2023-01-29T10:34:33.769Z,6.03
2023-01-29T10:39:37.319Z,6.10
2023-01-29T10:44:50.976Z,5.40
2023-01-29T10:50:13.369Z,5.50
2023-01-29T10:55:46.663Z,4.80
2023-01-29T11:00:49.572Z,4.80
2023-01-29T11:05:58.023Z,5.07
2023-01-29T11:11:07.674Z,5.23
2023-01-29T11:16:10.012Z,5.23
2023-01-29T11:21:11.705Z,4.97
2023-01-29T11:26:20.404Z,5.33
2023-01-29T11:31:25.566Z,5.20
2023-01-29T11:36:34.747Z,4.97
2023-01-29T11:41:45.319Z,4.60
2023-01-29T11:46:48.208Z,5.33
2023-01-29T11:51:54.847Z,5.23
2023-01-29T11:56:59.100Z,6.47
2023-01-29T12:02:20.984Z,5.63
2023-01-29T12:07:23.345Z,5.10
2023-01-29T12:12:32.535Z,5.13
2023-01-29T12:17:38.925Z,5.00
2023-01-29T12:22:47.103Z,5.40
2023-01-29T12:27:59.747Z,5.37
2023-01-29T12:33:10.252Z,5.40
2023-01-29T12:38:19.593Z,5.10
2023-01-29T12:43:27.436Z,4.53
2023-01-29T12:48:33.038Z,5.60
2023-01-29T12:53:42.008Z,4.97
2023-01-29T12:58:48.482Z,5.27
2023-01-29T13:04:14.784Z,4.80
2023-01-29T13:09:21.430Z,5.17
2023-01-29T13:14:48.092Z,5.27
2023-01-29T13:19:52.631Z,4.60
2023-01-29T13:25:04.136Z,5.00
2023-01-29T13:30:24.730Z,5.10
2023-01-29T13:35:26.634Z,5.63
2023-01-29T13:40:32.350Z,4.93
2023-01-29T13:51:33.414Z,5.30
2023-01-29T13:56:58.263Z,5.27
2023-01-29T14:02:24.109Z,5.50
2023-01-29T14:07:49.345Z,6.67
2023-01-29T14:12:52.771Z,7.17
2023-01-29T14:18:00.201Z,6.70
2023-01-29T14:28:32.262Z,6.83
2023-01-29T14:33:39.154Z,6.40
2023-01-29T14:38:47.991Z,7.67
2023-01-29T14:43:49.812Z,6.47
2023-01-29T14:48:53.407Z,8.57
2023-01-29T14:54:03.243Z,7.00
2023-01-29T14:59:15.429Z,7.10
2023-01-29T15:04:23.524Z,7.67
2023-01-29T15:09:36.798Z,8.13
2023-01-29T15:14:46.312Z,7.30
2023-01-29T15:19:49.999Z,9.07
2023-01-29T15:25:07.511Z,7.43
2023-01-29T15:30:15.836Z,7.37
2023-01-29T15:35:28.264Z,7.70
2023-01-29T15:40:30.598Z,8.60
2023-01-29T15:45:34.112Z,7.87
2023-01-29T15:50:41.853Z,10.20
2023-01-29T15:55:44.744Z,9.93
2023-01-29T16:00:52.525Z,8.50
2023-01-29T16:05:56.928Z,9.30
2023-01-29T16:11:01.869Z,9.43
2023-01-29T16:16:16.410Z,8.63
2023-01-29T16:21:27.714Z,9.30
2023-01-29T16:26:33.935Z,10.90
2023-01-29T16:31:37.794Z,9.47
2023-01-29T16:42:23.549Z,9.90
2023-01-29T16:47:34.455Z,9.13
2023-01-29T16:52:37.575Z,9.40
2023-01-29T16:57:40.631Z,9.37
2023-01-29T17:02:42.792Z,9.20
2023-01-29T17:07:46.691Z,9.10
2023-01-29T17:12:54.413Z,8.63
2023-01-29T17:17:56.536Z,9.90
2023-01-29T17:23:00.220Z,8.57
2023-01-29T17:28:02.932Z,8.03
2023-01-29T17:33:13.078Z,8.67
2023-01-29T17:38:25.991Z,8.77
2023-01-29T17:43:28.635Z,8.17
2023-01-29T17:48:31.889Z,8.37
2023-01-29T17:53:50.348Z,7.50
2023-01-29T17:58:52.258Z,7.67
2023-01-29T18:03:54.467Z,6.83
2023-01-29T18:08:57.778Z,8.10
2023-01-29T18:14:02.727Z,7.70
2023-01-29T18:19:21.291Z,6.67
2023-01-29T18:24:24.966Z,7.23
2023-01-29T18:29:27.192Z,6.67
2023-01-29T18:34:30.072Z,6.70
2023-01-29T18:39:33.903Z,6.57
2023-01-29T18:44:35.905Z,6.80
2023-01-29T18:49:38.034Z,6.40
2023-01-29T18:54:42.251Z,6.80
2023-01-29T18:59:44.854Z,6.47
2023-01-29T19:04:47.398Z,6.10
2023-01-29T19:09:50.541Z,7.57
2023-01-29T19:14:52.244Z,6.27
2023-01-29T19:19:54.515Z,6.53
2023-01-29T19:24:58.188Z,4.80
2023-01-29T19:30:00.483Z,5.33
2023-01-29T19:35:03.225Z,5.23
2023-01-29T19:40:08.280Z,4.40
2023-01-29T19:45:10.777Z,4.70
2023-01-29T19:50:13.385Z,4.93
2023-01-29T19:55:17.504Z,3.93
2023-01-29T20:00:20.956Z,4.47
2023-01-29T20:05:23.114Z,5.10
2023-01-29T20:10:27.139Z,4.57
2023-01-29T20:15:29.755Z,4.63
2023-01-29T20:20:32.663Z,4.60
2023-01-29T20:25:36.293Z,5.03
2023-01-29T20:30:40.037Z,4.00
2023-01-29T20:35:42.291Z,5.03
2023-01-29T20:40:45.971Z,3.67
2023-01-29T20:45:47.899Z,5.00
2023-01-29T20:50:50.162Z,4.20
2023-01-29T20:55:53.658Z,4.43
2023-01-29T21:00:55.498Z,4.83
2023-01-29T21:05:57.673Z,4.43
2023-01-29T21:11:04.438Z,4.60
2023-01-29T21:16:07.216Z,4.60
2023-01-29T21:21:09.613Z,5.10
2023-01-29T21:26:12.732Z,5.40
2023-01-29T21:31:15.039Z,4.83
2023-01-29T21:36:16.760Z,6.33
2023-01-29T21:41:20.307Z,5.13
2023-01-29T21:46:22.552Z,5.93
2023-01-29T21:51:24.741Z,5.30
2023-01-29T21:56:28.179Z,4.60
2023-01-29T22:01:37.287Z,6.30
2023-01-29T22:06:40.722Z,5.23
2023-01-29T22:11:44.285Z,5.23
2023-01-29T22:16:46.212Z,5.57
2023-01-29T22:21:48.513Z,4.87
2023-01-29T22:26:51.658Z,4.80
2023-01-29T22:31:53.429Z,5.37
2023-01-29T22:36:55.618Z,4.67
2023-01-29T22:41:59.288Z,4.97
2023-01-29T22:47:01.873Z,5.03
2023-01-29T22:52:03.907Z,4.87
2023-01-29T22:57:08.642Z,4.63
2023-01-29T23:02:11.576Z,5.00
2023-01-29T23:07:13.350Z,5.47
2023-01-29T23:12:17.309Z,5.33
2023-01-29T23:17:19.706Z,5.23
2023-01-29T23:22:22.037Z,4.90
2023-01-29T23:27:25.509Z,5.20
2023-01-29T23:32:27.588Z,5.73
2023-01-29T23:37:29.704Z,5.30
2023-01-29T23:42:32.918Z,5.77
2023-01-29T23:47:35.035Z,5.80
2023-01-29T23:52:37.156Z,6.13
2023-01-29T23:57:40.627Z,5.80
